Time;durP1;ratioP1;P1;durP2;ratioP2;P2;SDS_P1;SDS_P2;PMS_P1;PMS_P2;Temp;Humidity;BMP_temperature;BMP_pressure;BME280_temperature;BME280_humidity;BME280_pressure;Samples;Min_cycle;Max_cycle;Signal;HPM_P1;HPM_P2
2023/05/28 00:01:45;;;;;;;6.30;5.20;;;16.50;77.40;;;;;;6036275;23;20451;-63
2023/05/28 00:04:13;;;;;;;7.57;4.60;;;16.30;77.50;;;;;;6048090;23;20435;-64
2023/05/28 00:06:40;;;;;;;8.80;4.60;;;16.20;77.40;;;;;;6045785;23;20546;-63
2023/05/28 00:09:09;;;;;;;5.80;4.40;;;16.20;77.40;;;;;;6051714;23;20448;-63
2023/05/28 00:11:36;;;;;;;8.00;5.40;;;16.20;77.20;;;;;;6059029;23;20501;-63
2023/05/28 00:14:03;;;;;;;5.00;4.50;;;16.20;76.80;;;;;;6060620;23;20435;-63
2023/05/28 00:16:30;;;;;;;7.67;4.63;;;16.10;76.50;;;;;;6060086;23;20485;-63
2023/05/28 00:18:57;;;;;;;5.00;4.50;;;16.10;76.20;;;;;;6048832;23;20442;-65
2023/05/28 00:21:26;;;;;;;7.33;4.83;;;16.10;76.00;;;;;;6039869;23;20510;-64
2023/05/28 00:23:53;;;;;;;5.30;4.10;;;16.10;76.20;;;;;;6046911;23;20946;-63
2023/05/28 00:26:20;;;;;;;6.50;4.43;;;16.00;75.90;;;;;;6047090;23;20444;-63
2023/05/28 00:28:47;;;;;;;6.83;4.43;;;16.00;75.90;;;;;;6056252;23;20525;-64
2023/05/28 00:31:15;;;;;;;8.37;5.07;;;16.00;75.90;;;;;;6058906;23;20467;-63
2023/05/28 00:33:43;;;;;;;7.80;4.50;;;15.90;75.80;;;;;;6058031;23;20435;-63
2023/05/28 00:36:10;;;;;;;5.00;3.90;;;15.90;75.90;;;;;;6050494;23;20927;-63
2023/05/28 00:38:38;;;;;;;5.30;4.80;;;15.90;76.00;;;;;;6059273;23;20443;-63
2023/05/28 00:41:05;;;;;;;5.47;4.43;;;15.90;75.90;;;;;;6057205;23;20658;-63
2023/05/28 00:43:32;;;;;;;6.77;4.23;;;15.80;76.00;;;;;;6061275;23;20451;-63
2023/05/28 00:46:01;;;;;;;5.87;3.90;;;15.80;76.00;;;;;;6058451;23;20938;-63
2023/05/28 00:48:30;;;;;;;6.57;4.97;;;15.80;76.40;;;;;;6061408;23;20478;-63
2023/05/28 00:50:58;;;;;;;4.93;4.40;;;15.80;76.80;;;;;;6042980;23;20455;-62
2023/05/28 00:53:26;;;;;;;6.80;4.60;;;15.70;77.10;;;;;;6045629;23;20465;-62
2023/05/28 00:55:55;;;;;;;5.70;4.20;;;15.70;77.60;;;;;;6035735;23;20528;-62
2023/05/28 00:58:23;;;;;;;6.60;4.33;;;15.70;77.90;;;;;;6057401;23;20446;-62
2023/05/28 01:00:50;;;;;;;5.97;4.40;;;15.60;78.10;;;;;;6061236;23;20467;-62
2023/05/28 01:03:17;;;;;;;4.50;3.87;;;15.60;78.60;;;;;;6059403;23;20518;-62
2023/05/28 01:05:44;;;;;;;5.13;4.20;;;15.60;79.10;;;;;;6047600;23;20443;-62
2023/05/28 01:08:12;;;;;;;5.10;4.00;;;15.60;79.40;;;;;;6054241;23;20518;-62
2023/05/28 01:10:39;;;;;;;8.00;5.00;;;15.50;79.80;;;;;;6050233;23;20498;-62
2023/05/28 01:13:09;;;;;;;6.17;4.93;;;15.50;80.20;;;;;;6042780;23;20501;-61
2023/05/28 01:15:37;;;;;;;6.13;5.00;;;15.50;80.70;;;;;;6060064;23;20522;-63
2023/05/28 01:18:06;;;;;;;6.50;5.27;;;15.50;81.00;;;;;;6058683;23;20446;-62
2023/05/28 01:20:33;;;;;;;9.00;5.07;;;15.40;81.30;;;;;;6059066;23;20930;-63
2023/05/28 01:23:06;;;;;;;5.43;4.70;;;15.30;81.50;;;;;;6054669;23;20447;-63
2023/05/28 01:25:37;;;;;;;6.50;5.00;;;15.30;81.80;;;;;;6057000;23;20435;-63
2023/05/28 01:28:12;;;;;;;6.10;5.17;;;15.30;82.20;;;;;;6054484;23;20464;-63
2023/05/28 01:30:39;;;;;;;7.83;4.50;;;15.30;82.60;;;;;;6056599;23;20458;-63
2023/05/28 01:33:07;;;;;;;7.70;5.00;;;15.20;82.70;;;;;;6062467;23;20427;-63
2023/05/28 01:35:34;;;;;;;7.27;5.00;;;15.20;83.00;;;;;;6062522;23;21052;-63
2023/05/28 01:38:03;;;;;;;6.33;5.03;;;15.20;83.40;;;;;;6061427;23;20458;-63
2023/05/28 01:40:32;;;;;;;6.30;4.70;;;15.10;83.70;;;;;;6060618;23;20463;-63
2023/05/28 01:43:01;;;;;;;5.47;4.50;;;15.10;84.10;;;;;;6060417;23;20861;-63
2023/05/28 01:45:29;;;;;;;6.80;5.63;;;15.10;84.30;;;;;;6046415;23;20435;-63
2023/05/28 01:47:57;;;;;;;7.07;5.33;;;15.00;84.40;;;;;;6061924;23;20467;-63
2023/05/28 01:50:25;;;;;;;6.50;4.70;;;15.00;84.60;;;;;;6062095;23;20454;-63
2023/05/28 01:52:52;;;;;;;6.23;5.13;;;15.00;85.00;;;;;;6061935;23;20847;-62
2023/05/28 01:55:19;;;;;;;6.30;4.97;;;15.20;85.40;;;;;;6050364;23;20532;-63
2023/05/28 01:57:47;;;;;;;7.60;4.80;;;14.90;85.20;;;;;;6047324;23;20566;-63
2023/05/28 02:00:15;;;;;;;6.20;5.20;;;14.90;85.30;;;;;;6046947;23;20554;-63
2023/05/28 02:02:43;;;;;;;5.90;5.10;;;14.90;85.30;;;;;;6061495;23;20431;-63
2023/05/28 02:05:11;;;;;;;7.67;5.47;;;14.80;85.50;;;;;;6061264;23;20788;-63
2023/05/28 02:07:38;;;;;;;6.37;5.20;;;14.80;85.50;;;;;;6061709;23;21071;-63
2023/05/28 02:10:06;;;;;;;5.90;4.27;;;14.80;85.30;;;;;;6058625;23;20459;-62
2023/05/28 02:12:33;;;;;;;7.00;5.20;;;14.70;85.10;;;;;;6059911;23;21023;-62
2023/05/28 02:15:00;;;;;;;4.73;4.27;;;14.70;84.90;;;;;;6058739;23;20799;-62
2023/05/28 02:17:29;;;;;;;6.63;4.83;;;14.60;84.90;;;;;;6033187;23;20459;-62
2023/05/28 02:19:56;;;;;;;5.93;4.70;;;14.60;85.30;;;;;;6033467;23;20470;-62
2023/05/28 02:22:22;;;;;;;5.80;4.53;;;14.60;85.90;;;;;;6057420;23;20787;-63
2023/05/28 02:24:49;;;;;;;6.50;4.67;;;14.60;86.20;;;;;;6059815;23;20456;-63
2023/05/28 02:27:18;;;;;;;5.87;4.50;;;14.60;86.40;;;;;;6054160;23;20979;-63
2023/05/28 02:29:45;;;;;;;7.10;5.10;;;14.50;86.50;;;;;;6048397;23;21721;-62
2023/05/28 02:32:13;;;;;;;6.20;5.60;;;14.50;86.70;;;;;;6049448;23;20872;-62
2023/05/28 02:34:41;;;;;;;7.03;5.20;;;14.50;87.00;;;;;;6052163;23;20435;-62
2023/05/28 02:37:09;;;;;;;7.93;5.47;;;14.50;87.70;;;;;;6062446;23;20524;-62
2023/05/28 02:39:36;;;;;;;7.90;5.03;;;14.50;88.00;;;;;;6060600;23;20502;-62
2023/05/28 02:42:03;;;;;;;7.73;5.90;;;14.40;88.10;;;;;;6061436;23;20426;-62
2023/05/28 02:44:30;;;;;;;7.50;5.03;;;14.40;88.60;;;;;;6058075;23;20523;-62
2023/05/28 02:46:57;;;;;;;6.67;5.47;;;14.40;89.10;;;;;;6061617;23;20454;-62
2023/05/28 02:49:24;;;;;;;5.53;4.70;;;14.30;89.30;;;;;;6043542;23;20482;-62
2023/05/28 02:51:52;;;;;;;7.73;5.70;;;14.30;90.00;;;;;;6032747;23;20439;-62
2023/05/28 02:54:19;;;;;;;6.70;5.30;;;14.30;90.30;;;;;;6032667;23;20455;-62
2023/05/28 02:56:46;;;;;;;7.40;5.47;;;14.30;90.30;;;;;;6046353;23;20780;-62
2023/05/28 02:59:13;;;;;;;6.00;5.00;;;14.20;90.30;;;;;;6047767;23;20533;-62
2023/05/28 03:01:41;;;;;;;8.30;5.50;;;14.20;90.50;;;;;;6062591;23;20425;-63
2023/05/28 03:04:08;;;;;;;6.33;5.23;;;14.10;90.70;;;;;;6058769;23;20439;-63
2023/05/28 03:06:36;;;;;;;6.90;5.73;;;14.10;90.80;;;;;;6041665;23;20480;-63
2023/05/28 03:09:04;;;;;;;7.60;5.90;;;14.10;91.10;;;;;;6055772;23;20491;-63
2023/05/28 03:11:31;;;;;;;7.50;5.50;;;14.00;91.30;;;;;;6060419;23;20788;-63
2023/05/28 03:13:58;;;;;;;8.33;5.20;;;14.00;91.50;;;;;;6060039;23;20475;-63
2023/05/28 03:16:25;;;;;;;8.07;5.43;;;13.90;91.60;;;;;;6061047;23;20815;-63
2023/05/28 03:18:52;;;;;;;8.60;5.53;;;13.90;91.80;;;;;;6060668;23;20440;-63
2023/05/28 03:21:19;;;;;;;9.57;5.43;;;13.90;92.00;;;;;;6056459;23;20518;-62
2023/05/28 03:23:47;;;;;;;10.83;7.03;;;13.80;92.30;;;;;;6060148;23;20894;-62
2023/05/28 03:26:15;;;;;;;6.90;5.20;;;13.80;92.40;;;;;;6061076;23;20468;-62
2023/05/28 03:28:42;;;;;;;6.70;5.00;;;13.70;92.30;;;;;;6057930;23;21049;-63
2023/05/28 03:31:09;;;;;;;6.83;5.70;;;13.70;92.40;;;;;;6044015;23;20550;-63
2023/05/28 03:33:36;;;;;;;7.17;5.20;;;13.70;92.70;;;;;;6032582;23;20455;-62
2023/05/28 03:36:03;;;;;;;7.53;5.53;;;13.70;92.80;;;;;;6033013;23;20915;-62
2023/05/28 03:38:30;;;;;;;5.10;4.50;;;13.60;92.80;;;;;;6041575;23;20556;-62
2023/05/28 03:40:57;;;;;;;6.93;5.10;;;13.60;93.00;;;;;;6058834;23;20536;-62
2023/05/28 03:43:25;;;;;;;6.13;4.80;;;13.60;93.20;;;;;;6059337;23;20545;-62
2023/05/28 03:45:53;;;;;;;6.90;5.20;;;13.50;93.40;;;;;;6052497;23;20447;-62
2023/05/28 03:48:20;;;;;;;5.90;4.87;;;13.50;93.50;;;;;;6033725;23;20523;-62
2023/05/28 03:50:47;;;;;;;11.40;5.27;;;13.50;93.70;;;;;;6061078;23;20461;-62
2023/05/28 03:53:14;;;;;;;8.83;5.53;;;13.50;93.80;;;;;;6060075;23;20972;-63
2023/05/28 03:55:41;;;;;;;7.80;5.53;;;13.50;93.90;;;;;;6053141;23;20511;-62
2023/05/28 03:58:08;;;;;;;6.80;4.97;;;13.40;94.00;;;;;;6050508;23;20456;-63
2023/05/28 04:00:37;;;;;;;8.07;5.27;;;13.40;93.90;;;;;;6057743;23;20480;-62
2023/05/28 04:03:04;;;;;;;7.10;5.30;;;13.40;94.10;;;;;;6053609;23;20446;-62
2023/05/28 04:05:33;;;;;;;8.53;5.43;;;13.40;94.20;;;;;;6037415;23;20469;-62
2023/05/28 04:08:00;;;;;;;6.70;5.10;;;13.40;94.40;;;;;;6061250;23;20556;-62
2023/05/28 04:10:27;;;;;;;7.30;5.30;;;13.30;94.50;;;;;;6063223;23;20470;-62
2023/05/28 04:12:54;;;;;;;8.57;4.87;;;13.30;94.10;;;;;;6060269;23;20438;-62
2023/05/28 04:15:22;;;;;;;7.50;6.00;;;13.30;94.10;;;;;;6061980;23;20508;-62
2023/05/28 04:17:50;;;;;;;5.53;5.00;;;13.30;94.30;;;;;;6063503;23;20793;-62
2023/05/28 04:20:17;;;;;;;6.97;5.30;;;13.40;94.60;;;;;;6051081;23;20962;-62
2023/05/28 04:22:45;;;;;;;6.87;5.13;;;13.40;94.90;;;;;;6060082;23;20433;-62
2023/05/28 04:25:11;;;;;;;5.30;4.90;;;13.40;94.90;;;;;;6061445;23;20421;-62
2023/05/28 04:27:40;;;;;;;8.30;5.23;;;13.40;95.10;;;;;;6061349;23;20439;-62
2023/05/28 04:30:09;;;;;;;6.60;5.33;;;13.30;95.40;;;;;;6061545;23;20465;-62
2023/05/28 04:32:38;;;;;;;7.10;5.87;;;13.30;96.10;;;;;;6060511;23;20727;-62
2023/05/28 04:35:08;;;;;;;7.17;5.83;;;13.30;95.80;;;;;;6050043;23;20916;-62
2023/05/28 04:37:36;;;;;;;8.10;5.73;;;13.30;95.70;;;;;;6060296;23;20451;-62
2023/05/28 04:40:05;;;;;;;9.10;5.47;;;13.40;96.20;;;;;;6062373;23;20498;-62
2023/05/28 04:42:32;;;;;;;7.90;5.77;;;13.40;96.10;;;;;;6062660;23;20428;-62
2023/05/28 04:44:59;;;;;;;6.80;5.83;;;13.40;95.90;;;;;;6052268;23;20477;-62
2023/05/28 04:47:27;;;;;;;6.60;5.67;;;13.40;96.30;;;;;;6049886;23;20435;-63
2023/05/28 04:49:57;;;;;;;6.47;5.53;;;13.40;96.50;;;;;;6063039;23;20551;-63
2023/05/28 04:52:26;;;;;;;8.70;5.90;;;13.40;97.00;;;;;;6054194;23;20482;-62
2023/05/28 04:54:53;;;;;;;6.83;5.27;;;13.40;97.10;;;;;;6050132;23;20460;-62
2023/05/28 04:57:21;;;;;;;7.23;5.43;;;13.50;96.60;;;;;;6054812;23;20444;-63
2023/05/28 04:59:49;;;;;;;8.67;5.37;;;13.50;96.60;;;;;;6062208;23;20540;-62
2023/05/28 05:02:17;;;;;;;6.17;5.27;;;13.60;96.70;;;;;;6057487;23;20456;-62
2023/05/28 05:04:44;;;;;;;6.00;5.20;;;13.70;96.20;;;;;;6060353;23;20549;-62
2023/05/28 05:07:11;;;;;;;6.90;5.47;;;13.70;95.80;;;;;;6058718;23;20477;-62
2023/05/28 05:09:39;;;;;;;7.00;4.90;;;13.90;95.40;;;;;;6059851;23;20527;-62
2023/05/28 05:12:07;;;;;;;6.37;5.67;;;13.90;95.10;;;;;;6051578;23;20851;-62
2023/05/28 05:14:34;;;;;;;9.33;5.60;;;14.00;94.90;;;;;;6060797;23;20442;-62
2023/05/28 05:17:02;;;;;;;7.73;5.20;;;14.10;95.20;;;;;;6060094;23;20996;-62
2023/05/28 05:19:29;;;;;;;7.50;5.73;;;14.20;95.30;;;;;;6060692;23;21284;-62
2023/05/28 05:21:56;;;;;;;6.03;5.10;;;14.20;95.50;;;;;;6060698;23;20527;-62
2023/05/28 05:24:23;;;;;;;6.53;5.10;;;14.30;95.80;;;;;;6059569;23;20530;-62
2023/05/28 05:26:51;;;;;;;6.97;5.57;;;14.40;95.60;;;;;;6057245;23;20822;-63
2023/05/28 05:29:18;;;;;;;8.07;5.67;;;14.50;96.10;;;;;;6043008;23;20555;-62
2023/05/28 05:31:45;;;;;;;6.73;5.73;;;14.40;96.30;;;;;;6061090;23;20423;-63
2023/05/28 05:34:12;;;;;;;7.90;5.90;;;14.50;96.70;;;;;;6060330;23;20435;-62
2023/05/28 05:36:39;;;;;;;6.63;5.87;;;14.60;97.10;;;;;;6061292;23;20420;-63
2023/05/28 05:39:06;;;;;;;8.43;5.77;;;14.60;97.60;;;;;;6050488;23;20491;-63
2023/05/28 05:41:33;;;;;;;6.67;5.10;;;14.70;97.80;;;;;;6058016;23;20519;-63
2023/05/28 05:44:01;;;;;;;6.80;4.87;;;14.80;97.10;;;;;;6058800;23;20530;-62
2023/05/28 05:46:28;;;;;;;5.80;5.23;;;14.90;97.30;;;;;;6058111;23;20506;-62
2023/05/28 05:48:55;;;;;;;5.40;4.67;;;15.00;96.30;;;;;;6050398;23;20467;-63
2023/05/28 05:51:22;;;;;;;6.10;5.23;;;15.10;95.80;;;;;;6056032;23;20462;-63
2023/05/28 05:53:50;;;;;;;7.03;5.03;;;15.20;95.60;;;;;;6061752;23;20465;-63
2023/05/28 05:56:17;;;;;;;5.90;5.10;;;15.30;95.60;;;;;;6062058;23;20852;-63
2023/05/28 05:58:45;;;;;;;6.97;5.13;;;15.40;94.30;;;;;;6061034;23;20440;-62
2023/05/28 06:01:17;;;;;;;7.27;5.13;;;15.50;94.10;;;;;;6058390;23;20472;-62
2023/05/28 06:03:44;;;;;;;6.50;4.80;;;15.60;94.40;;;;;;6059365;23;21014;-63
2023/05/28 06:06:11;;;;;;;8.10;5.47;;;15.60;94.40;;;;;;6061878;23;20712;-62
2023/05/28 06:08:39;;;;;;;6.20;4.93;;;15.80;94.90;;;;;;6061006;23;20459;-62
2023/05/28 06:11:06;;;;;;;5.37;4.80;;;15.90;94.10;;;;;;6060591;23;20439;-63
2023/05/28 06:13:33;;;;;;;5.67;4.90;;;16.00;93.30;;;;;;6055291;23;20439;-63
2023/05/28 06:16:01;;;;;;;6.13;5.37;;;16.20;93.30;;;;;;6059384;23;20436;-63
2023/05/28 06:18:30;;;;;;;7.13;4.90;;;16.30;93.20;;;;;;6045358;23;20432;-62
2023/05/28 06:20:57;;;;;;;5.13;4.60;;;16.40;92.90;;;;;;6060362;23;20443;-62
2023/05/28 06:23:25;;;;;;;6.70;4.90;;;16.70;92.40;;;;;;6061686;23;21729;-62
2023/05/28 06:25:51;;;;;;;5.37;4.87;;;16.70;91.90;;;;;;6054351;23;20446;-63
2023/05/28 06:28:18;;;;;;;6.60;4.77;;;16.90;91.40;;;;;;6055629;23;20518;-63
2023/05/28 06:30:45;;;;;;;6.30;4.57;;;17.00;90.90;;;;;;6061746;23;20477;-63
2023/05/28 06:33:12;;;;;;;6.73;5.27;;;17.20;90.50;;;;;;6051301;23;20792;-62
2023/05/28 06:35:41;;;;;;;5.03;4.50;;;17.30;89.50;;;;;;6060447;23;21096;-63
2023/05/28 06:38:08;;;;;;;6.20;4.93;;;17.40;89.10;;;;;;6061608;23;20566;-63
2023/05/28 06:40:35;;;;;;;6.00;4.73;;;17.60;88.30;;;;;;6061174;23;20863;-63
2023/05/28 06:43:02;;;;;;;4.27;3.87;;;17.70;86.60;;;;;;6061312;23;20668;-62
2023/05/28 06:45:32;;;;;;;5.13;4.23;;;17.70;87.40;;;;;;6060682;23;20955;-64
2023/05/28 06:47:59;;;;;;;6.07;4.30;;;17.80;87.60;;;;;;6052079;23;20852;-62
2023/05/28 06:50:26;;;;;;;4.60;4.20;;;18.00;87.70;;;;;;6058137;23;20528;-62
2023/05/28 06:52:56;;;;;;;7.17;4.70;;;18.10;87.00;;;;;;6058035;23;20470;-62
2023/05/28 06:55:22;;;;;;;7.53;5.50;;;18.20;84.90;;;;;;6061298;23;20474;-62
2023/05/28 06:57:50;;;;;;;7.37;5.30;;;18.20;86.20;;;;;;6055066;23;21003;-62
2023/05/28 07:00:17;;;;;;;5.87;4.97;;;18.20;86.20;;;;;;6060130;23;21044;-62
2023/05/28 07:02:45;;;;;;;7.53;5.50;;;18.30;86.50;;;;;;6056779;23;20954;-62
2023/05/28 07:05:13;;;;;;;7.17;5.23;;;18.40;86.30;;;;;;6052566;23;20440;-62
2023/05/28 07:07:40;;;;;;;5.03;4.50;;;18.50;86.10;;;;;;6061407;23;20443;-62
2023/05/28 07:10:09;;;;;;;5.50;4.50;;;18.70;85.60;;;;;;6059725;23;20471;-62
2023/05/28 07:12:36;;;;;;;6.30;4.90;;;18.90;84.70;;;;;;6060524;23;20527;-63
2023/05/28 07:15:04;;;;;;;6.40;5.00;;;19.00;84.60;;;;;;6061480;23;20431;-62
2023/05/28 07:17:31;;;;;;;8.40;5.20;;;19.20;84.50;;;;;;6055592;23;20470;-61
2023/05/28 07:19:58;;;;;;;6.20;5.07;;;19.30;84.50;;;;;;6051547;23;20450;-62
2023/05/28 07:22:26;;;;;;;6.53;4.53;;;19.70;84.90;;;;;;6042047;23;23178;-61
2023/05/28 07:24:53;;;;;;;6.30;4.93;;;19.60;83.60;;;;;;6043197;23;20473;-62
2023/05/28 07:27:21;;;;;;;5.90;5.10;;;19.70;83.20;;;;;;6058763;23;20488;-63
2023/05/28 07:29:48;;;;;;;8.73;4.50;;;19.90;83.80;;;;;;6055257;23;20909;-62
2023/05/28 07:32:15;;;;;;;6.87;4.77;;;20.10;82.80;;;;;;6053993;23;20439;-62
2023/05/28 07:34:42;;;;;;;5.70;5.10;;;20.40;82.80;;;;;;6060743;23;20435;-62
2023/05/28 07:37:10;;;;;;;7.50;4.80;;;20.70;82.40;;;;;;6039470;23;20435;-62
2023/05/28 07:39:37;;;;;;;5.73;4.90;;;21.00;82.00;;;;;;6054591;23;21127;-62
2023/05/28 07:42:04;;;;;;;7.17;5.10;;;21.40;81.10;;;;;;6064354;23;20439;-62
2023/05/28 07:44:32;;;;;;;6.63;5.07;;;21.80;80.30;;;;;;6046474;23;20541;-62
2023/05/28 07:46:59;;;;;;;6.40;5.03;;;22.10;77.90;;;;;;6053602;23;20445;-62
2023/05/28 07:49:26;;;;;;;5.83;5.23;;;22.10;78.00;;;;;;6050228;23;20966;-62
2023/05/28 07:51:54;;;;;;;7.10;4.30;;;22.30;77.30;;;;;;6045371;23;20442;-62
2023/05/28 07:54:20;;;;;;;5.00;4.50;;;22.70;77.50;;;;;;6056327;23;21017;-62
2023/05/28 07:56:48;;;;;;;5.77;4.77;;;23.10;76.70;;;;;;6060862;23;20431;-62
2023/05/28 07:59:16;;;;;;;5.10;4.60;;;23.40;74.10;;;;;;6058368;23;21193;-61
2023/05/28 08:01:44;;;;;;;5.83;4.77;;;23.10;71.90;;;;;;6065964;23;20437;-62
2023/05/28 08:04:11;;;;;;;4.97;4.30;;;23.00;73.20;;;;;;6064551;23;20458;-62
2023/05/28 08:06:38;;;;;;;5.87;5.13;;;23.10;73.90;;;;;;6064060;23;20589;-63
2023/05/28 08:09:05;;;;;;;6.33;5.00;;;23.20;73.00;;;;;;6059896;23;20474;-63
2023/05/28 08:11:32;;;;;;;6.47;4.57;;;23.30;72.50;;;;;;6058236;23;20502;-63
2023/05/28 08:13:59;;;;;;;5.80;4.90;;;23.30;72.80;;;;;;6065770;23;20435;-62
2023/05/28 08:16:26;;;;;;;5.30;4.43;;;23.50;74.00;;;;;;6058527;23;20449;-62
2023/05/28 08:18:54;;;;;;;4.87;4.03;;;23.90;72.90;;;;;;6054684;23;20451;-62
2023/05/28 08:21:22;;;;;;;5.97;4.87;;;24.20;73.00;;;;;;6047203;23;20527;-63
2023/05/28 08:23:49;;;;;;;5.93;5.03;;;24.60;71.10;;;;;;6046985;23;20995;-62
2023/05/28 08:26:16;;;;;;;5.10;4.60;;;24.90;70.20;;;;;;6058788;23;20997;-61
2023/05/28 08:28:44;;;;;;;5.90;5.30;;;25.30;69.70;;;;;;6054763;23;20470;-63
2023/05/28 08:31:10;;;;;;;5.43;4.10;;;25.50;67.60;;;;;;6048760;23;20502;-62
2023/05/28 08:33:37;;;;;;;5.70;4.00;;;25.70;67.60;;;;;;6043856;23;21452;-62
2023/05/28 08:36:07;;;;;;;5.87;5.10;;;25.70;67.40;;;;;;6063656;23;20477;-63
2023/05/28 08:38:34;;;;;;;5.70;4.40;;;25.60;68.90;;;;;;6054743;23;20768;-64
2023/05/28 08:41:02;;;;;;;6.70;4.83;;;25.80;67.70;;;;;;6045643;23;20445;-64
2023/05/28 08:43:29;;;;;;;8.50;5.00;;;25.90;67.80;;;;;;6063056;23;21008;-67
2023/05/28 08:45:56;;;;;;;5.60;4.30;;;26.10;66.00;;;;;;6049572;23;21435;-65
2023/05/28 08:48:24;;;;;;;6.43;4.50;;;26.30;66.70;;;;;;6039378;23;20431;-66
2023/05/28 08:50:52;;;;;;;4.63;3.97;;;26.20;64.30;;;;;;6057332;23;20552;-65
2023/05/28 08:53:23;;;;;;;5.93;4.80;;;25.80;64.10;;;;;;6059151;23;20443;-64
2023/05/28 08:55:50;;;;;;;5.77;4.57;;;25.60;64.90;;;;;;6059674;23;20466;-76
2023/05/28 08:58:18;;;;;;;8.73;4.33;;;25.80;66.20;;;;;;6060551;23;20523;-65
2023/05/28 09:00:45;;;;;;;8.40;4.60;;;26.10;65.30;;;;;;6059654;23;20438;-66
2023/05/28 09:03:12;;;;;;;5.40;4.47;;;26.20;63.40;;;;;;6042648;23;20442;-65
2023/05/28 09:05:40;;;;;;;5.73;4.57;;;26.20;64.80;;;;;;6054196;23;20447;-65
2023/05/28 09:08:08;;;;;;;7.00;4.97;;;26.10;64.70;;;;;;6055386;23;20533;-63
2023/05/28 09:10:36;;;;;;;5.83;4.50;;;26.30;65.70;;;;;;6047144;23;21148;-66
2023/05/28 09:13:05;;;;;;;5.53;4.60;;;26.40;64.60;;;;;;6045175;23;20983;-66
2023/05/28 09:15:33;;;;;;;4.73;4.20;;;26.60;63.70;;;;;;6046723;23;20927;-65
2023/05/28 09:18:01;;;;;;;4.50;4.00;;;26.60;64.90;;;;;;6064844;23;20431;-66
2023/05/28 09:20:28;;;;;;;5.30;4.57;;;26.60;64.50;;;;;;6052335;23;20467;-65
2023/05/28 09:23:00;;;;;;;5.03;3.90;;;26.70;63.80;;;;;;6058608;23;20644;-66
2023/05/28 09:25:28;;;;;;;5.17;4.50;;;26.80;63.90;;;;;;6055204;23;20432;-65
2023/05/28 09:27:59;;;;;;;4.40;4.00;;;27.10;63.10;;;;;;6045562;23;20443;-66
2023/05/28 09:30:26;;;;;;;5.30;4.77;;;27.00;62.70;;;;;;6049840;23;20489;-66
2023/05/28 09:33:01;;;;;;;4.93;4.30;;;26.80;63.60;;;;;;6045781;23;20450;-65
2023/05/28 09:35:29;;;;;;;4.97;4.47;;;27.00;64.40;;;;;;6048893;23;20949;-67
2023/05/28 09:38:04;;;;;;;6.30;5.00;;;27.30;63.70;;;;;;6043528;23;20776;-66
2023/05/28 09:43:29;;;;;;;5.60;4.90;;;27.20;62.30;;;;;;5184732;22;20500;-66
2023/05/28 09:46:08;;;;;;;5.40;4.37;;;27.30;63.30;;;;;;5024078;28;20547;-66
2023/05/28 09:48:35;;;;;;;4.93;3.53;;;27.60;62.20;;;;;;5026389;28;20462;-66
2023/05/28 09:51:05;;;;;;;6.17;4.50;;;28.00;61.70;;;;;;5024382;28;20541;-66
2023/05/28 09:53:36;;;;;;;6.20;4.63;;;28.50;60.70;;;;;;5035220;28;20478;-66
2023/05/28 09:56:04;;;;;;;4.57;4.17;;;29.10;60.40;;;;;;5040837;28;20451;-67
2023/05/28 09:58:34;;;;;;;4.90;4.13;;;29.40;59.40;;;;;;5044407;28;20470;-65
2023/05/28 10:01:05;;;;;;;5.63;4.20;;;29.60;58.90;;;;;;5050026;28;20827;-66
2023/05/28 10:03:38;;;;;;;5.37;3.93;;;29.80;58.00;;;;;;5045989;28;20528;-66
2023/05/28 10:06:11;;;;;;;4.63;3.97;;;29.90;57.00;;;;;;5027034;28;20517;-65
2023/05/28 10:08:40;;;;;;;6.50;4.90;;;30.10;56.40;;;;;;5032193;28;20455;-66
2023/05/28 10:11:12;;;;;;;4.67;4.17;;;30.30;56.10;;;;;;5047671;28;20889;-66
2023/05/28 10:13:42;;;;;;;4.83;4.33;;;30.30;56.00;;;;;;5049284;28;20483;-66
2023/05/28 10:16:09;;;;;;;6.33;4.03;;;30.30;56.20;;;;;;5037873;28;20462;-66
2023/05/28 10:18:36;;;;;;;5.07;4.60;;;29.90;56.10;;;;;;5038204;28;20459;-66
2023/05/28 10:21:05;;;;;;;4.73;4.33;;;29.50;55.30;;;;;;5046745;28;20970;-67
2023/05/28 10:23:33;;;;;;;5.60;5.00;;;29.40;56.90;;;;;;5047399;28;20867;-66
2023/05/28 10:26:00;;;;;;;5.27;4.30;;;29.30;56.50;;;;;;5050048;28;21021;-65
2023/05/28 10:28:30;;;;;;;5.73;4.37;;;29.40;56.60;;;;;;5049726;28;20526;-66
2023/05/28 10:31:04;;;;;;;5.07;4.57;;;29.20;55.90;;;;;;5052741;28;20483;-68
2023/05/28 10:33:32;;;;;;;5.20;4.50;;;29.20;56.30;;;;;;5045030;28;20558;-66
2023/05/28 10:36:01;;;;;;;5.30;4.40;;;29.60;55.50;;;;;;5044164;28;20451;-66
2023/05/28 10:38:29;;;;;;;5.40;4.17;;;29.90;53.60;;;;;;5045825;28;20459;-65
2023/05/28 10:41:03;;;;;;;5.20;4.30;;;29.90;53.20;;;;;;5049676;28;20471;-65
2023/05/28 10:43:45;;;;;;;6.10;4.00;;;29.60;53.60;;;;;;5045921;28;20474;-65
2023/05/28 10:46:16;;;;;;;5.77;4.33;;;29.40;54.10;;;;;;5046417;28;20462;-65
2023/05/28 10:49:07;;;;;;;5.33;4.40;;;29.60;53.70;;;;;;5046346;28;20488;-65
2023/05/28 10:51:51;;;;;;;5.23;4.27;;;29.70;53.70;;;;;;5036720;28;20496;-77
2023/05/28 10:54:23;;;;;;;6.50;4.27;;;29.20;53.90;;;;;;5046280;28;20482;-76
2023/05/28 10:57:08;;;;;;;7.10;4.10;;;28.90;53.80;;;;;;5037629;28;20455;-65
2023/05/28 10:59:45;;;;;;;4.77;3.77;;;29.00;55.10;;;;;;5049890;28;20456;-66
2023/05/28 11:02:17;;;;;;;5.77;4.10;;;29.20;53.20;;;;;;5046431;28;20532;-66
2023/05/28 11:04:45;;;;;;;4.53;4.10;;;29.30;53.10;;;;;;5037960;28;20857;-67
2023/05/28 11:07:13;;;;;;;5.40;4.10;;;29.70;51.80;;;;;;5028679;28;20982;-66
2023/05/28 11:09:40;;;;;;;4.47;3.67;;;30.10;52.30;;;;;;5047233;28;20451;-66
2023/05/28 11:12:08;;;;;;;4.60;4.00;;;30.60;52.00;;;;;;5039029;28;20499;-65
2023/05/28 11:14:37;;;;;;;5.53;4.13;;;31.00;49.40;;;;;;5036158;28;21218;-65
2023/05/28 11:17:09;;;;;;;4.80;4.40;;;30.90;49.60;;;;;;5023926;28;20471;-66
2023/05/28 11:19:42;;;;;;;5.30;4.13;;;30.60;50.00;;;;;;5030437;28;20457;-67
2023/05/28 11:22:09;;;;;;;4.67;3.83;;;30.60;51.10;;;;;;5034594;28;20589;-67
2023/05/28 11:24:55;;;;;;;4.60;4.10;;;30.60;51.30;;;;;;5024776;28;20463;-66
2023/05/28 11:27:23;;;;;;;4.63;4.20;;;31.00;51.20;;;;;;5035529;28;21364;-67
2023/05/28 11:29:51;;;;;;;4.40;4.00;;;31.30;50.50;;;;;;5032195;28;20455;-68
2023/05/28 11:32:19;;;;;;;4.40;4.00;;;31.70;50.00;;;;;;5041147;28;20498;-67
2023/05/28 11:34:49;;;;;;;6.10;4.93;;;32.00;50.30;;;;;;5037981;28;20492;-67
2023/05/28 11:37:16;;;;;;;4.33;3.93;;;32.30;49.10;;;;;;5034148;28;20451;-67
2023/05/28 11:39:50;;;;;;;4.30;3.90;;;32.60;48.70;;;;;;5031718;28;20866;-67
2023/05/28 11:42:17;;;;;;;4.80;4.30;;;32.90;48.80;;;;;;5033344;28;20472;-68
2023/05/28 11:44:45;;;;;;;6.30;4.50;;;32.80;48.50;;;;;;5033819;28;20474;-67
2023/05/28 11:47:13;;;;;;;4.07;3.67;;;32.30;46.40;;;;;;5030220;28;20889;-67
2023/05/28 11:49:41;;;;;;;5.10;4.10;;;32.00;49.00;;;;;;5034592;28;20566;-67
2023/05/28 11:52:12;;;;;;;4.93;4.40;;;32.10;47.40;;;;;;5016359;28;20495;-69
2023/05/28 11:54:40;;;;;;;5.27;4.30;;;32.30;47.20;;;;;;5024513;28;20542;-67
2023/05/28 11:57:07;;;;;;;5.20;4.03;;;32.10;46.90;;;;;;5039137;28;20490;-68
2023/05/28 11:59:35;;;;;;;4.50;4.10;;;31.90;48.40;;;;;;5035266;28;20770;-67
2023/05/28 16:02:32;;;;;;;5.70;5.20;;;31.60;45.70;;;;;;6127144;22;21235;-79
2023/05/28 16:04:59;;;;;;;6.87;6.10;;;30.90;46.80;;;;;;6112448;23;20489;-79
2023/05/28 16:07:27;;;;;;;6.97;6.03;;;30.50;47.20;;;;;;6105726;23;20848;-79
2023/05/28 16:09:54;;;;;;;6.10;5.37;;;30.10;47.70;;;;;;6109531;23;20428;-79
2023/05/28 16:12:22;;;;;;;6.17;5.57;;;29.90;47.80;;;;;;6099671;23;20821;-78
2023/05/28 16:14:51;;;;;;;6.00;5.50;;;29.70;48.80;;;;;;6105429;23;20441;-80
2023/05/28 16:17:19;;;;;;;5.93;5.43;;;29.40;48.40;;;;;;6096491;23;20439;-79
2023/05/28 16:19:48;;;;;;;5.90;5.30;;;29.10;49.00;;;;;;6099444;23;21015;-80
2023/05/28 16:22:15;;;;;;;9.00;6.13;;;28.80;49.00;;;;;;6109412;23;20468;-78
2023/05/28 16:24:43;;;;;;;5.20;4.70;;;28.70;49.20;;;;;;6118816;23;20429;-80
2023/05/28 16:27:11;;;;;;;7.10;6.10;;;28.40;49.30;;;;;;6123078;23;20433;-80
2023/05/28 16:29:39;;;;;;;8.47;6.00;;;28.30;49.80;;;;;;6122576;23;20461;-80
2023/05/28 16:32:07;;;;;;;6.07;5.43;;;28.20;49.80;;;;;;6105334;23;20461;-80
2023/05/28 16:34:35;;;;;;;6.20;5.60;;;28.10;50.20;;;;;;6119414;23;20483;-80
2023/05/28 16:37:05;;;;;;;6.63;5.60;;;28.00;50.20;;;;;;6111344;23;20434;-80
2023/05/28 16:39:33;;;;;;;6.23;5.30;;;27.80;50.40;;;;;;6099139;23;20440;-74
2023/05/28 16:42:01;;;;;;;5.40;4.90;;;27.70;50.50;;;;;;6113501;23;20481;-76
2023/05/28 16:44:28;;;;;;;6.23;5.67;;;27.50;50.30;;;;;;6115702;23;20945;-74
2023/05/28 16:46:55;;;;;;;11.40;5.97;;;27.50;50.50;;;;;;6106479;23;20453;-74
2023/05/28 16:49:23;;;;;;;7.23;5.40;;;27.40;50.10;;;;;;6110642;23;21023;-78
2023/05/28 16:51:51;;;;;;;6.70;6.10;;;27.30;49.50;;;;;;6112993;23;20449;-75
2023/05/28 16:54:19;;;;;;;6.00;5.20;;;27.10;50.20;;;;;;6117876;23;20502;-78